sensor_id;sensor_type;location;lat;lon;timestamp;pressure;altitude;pressure_sealevel;temperature;humidity
13456;BME280;6800;50.940;6.940;2023-07-31T00:02:41;100454.03;;;28.60;44.27
13456;BME280;6800;50.940;6.940;2023-07-31T00:06:42;100463.94;;;28.73;44.45
13456;BME280;6800;50.940;6.940;2023-07-31T00:10:44;100457.34;;;28.69;44.16
13456;BME280;6800;50.940;6.940;2023-07-31T00:14:45;100464.94;;;28.85;43.70
13456;BME280;6800;50.940;6.940;2023-07-31T00:18:47;100462.66;;;28.95;43.72
13456;BME280;6800;50.940;6.940;2023-07-31T00:22:48;100470.06;;;28.99;43.71
13456;BME280;6800;50.940;6.940;2023-07-31T00:26:49;100455.22;;;28.90;43.28
13456;BME280;6800;50.940;6.940;2023-07-31T00:30:51;100459.09;;;29.07;43.72
13456;BME280;6800;50.940;6.940;2023-07-31T00:34:52;100462.41;;;29.03;43.67
13456;BME280;6800;50.940;6.940;2023-07-31T00:38:54;100459.06;;;29.14;43.13
13456;BME280;6800;50.940;6.940;2023-07-31T00:42:55;100456.81;;;29.11;43.15
13456;BME280;6800;50.940;6.940;2023-07-31T00:46:56;100448.50;;;29.12;42.96
13456;BME280;6800;50.940;6.940;2023-07-31T00:51:00;100452.03;;;29.19;43.08
13456;BME280;6800;50.940;6.940;2023-07-31T00:55:03;100441.31;;;29.00;43.08
13456;BME280;6800;50.940;6.940;2023-07-31T00:59:04;100446.47;;;29.01;42.49
13456;BME280;6800;50.940;6.940;2023-07-31T01:03:05;100438.75;;;28.47;43.70
13456;BME280;6800;50.940;6.940;2023-07-31T01:07:14;100428.00;;;28.67;43.13
13456;BME280;6800;50.940;6.940;2023-07-31T01:11:27;100422.09;;;28.96;42.41
13456;BME280;6800;50.940;6.940;2023-07-31T01:15:29;100417.38;;;28.85;42.77
13456;BME280;6800;50.940;6.940;2023-07-31T01:19:31;100421.53;;;28.81;42.26
13456;BME280;6800;50.940;6.940;2023-07-31T01:28:13;100415.19;;;28.63;42.42
13456;BME280;6800;50.940;6.940;2023-07-31T01:32:17;100414.69;;;28.92;42.02
13456;BME280;6800;50.940;6.940;2023-07-31T01:36:19;100419.28;;;28.72;42.57
13456;BME280;6800;50.940;6.940;2023-07-31T01:40:21;100416.16;;;28.88;41.99
13456;BME280;6800;50.940;6.940;2023-07-31T01:44:22;100423.44;;;28.61;42.62
13456;BME280;6800;50.940;6.940;2023-07-31T01:48:24;100420.78;;;28.41;43.10
13456;BME280;6800;50.940;6.940;2023-07-31T01:52:25;100407.53;;;28.40;43.24
13456;BME280;6800;50.940;6.940;2023-07-31T01:56:27;100419.50;;;28.70;42.10
13456;BME280;6800;50.940;6.940;2023-07-31T02:00:28;100419.72;;;28.62;42.71
13456;BME280;6800;50.940;6.940;2023-07-31T02:04:29;100417.88;;;28.49;43.28
13456;BME280;6800;50.940;6.940;2023-07-31T02:08:31;100408.09;;;28.81;42.45
13456;BME280;6800;50.940;6.940;2023-07-31T02:12:32;100406.28;;;28.69;43.00
13456;BME280;6800;50.940;6.940;2023-07-31T02:16:34;100409.94;;;28.87;42.21
13456;BME280;6800;50.940;6.940;2023-07-31T02:20:36;100403.09;;;28.91;41.96
13456;BME280;6800;50.940;6.940;2023-07-31T02:24:37;100390.47;;;28.92;42.12
13456;BME280;6800;50.940;6.940;2023-07-31T02:28:39;100391.28;;;28.99;41.90
13456;BME280;6800;50.940;6.940;2023-07-31T02:32:40;100387.78;;;28.92;41.94
13456;BME280;6800;50.940;6.940;2023-07-31T02:36:41;100387.78;;;28.98;41.86
13456;BME280;6800;50.940;6.940;2023-07-31T02:40:43;100389.34;;;29.19;41.31
13456;BME280;6800;50.940;6.940;2023-07-31T02:44:44;100381.13;;;29.07;41.23
13456;BME280;6800;50.940;6.940;2023-07-31T02:48:46;100388.50;;;29.18;41.18
13456;BME280;6800;50.940;6.940;2023-07-31T02:52:47;100379.22;;;29.08;41.70
13456;BME280;6800;50.940;6.940;2023-07-31T02:56:48;100374.88;;;29.13;41.16
13456;BME280;6800;50.940;6.940;2023-07-31T03:00:50;100374.06;;;29.06;41.65
13456;BME280;6800;50.940;6.940;2023-07-31T03:04:51;100369.53;;;29.07;41.74
13456;BME280;6800;50.940;6.940;2023-07-31T03:08:53;100364.38;;;29.05;41.46
13456;BME280;6800;50.940;6.940;2023-07-31T03:12:54;100366.69;;;28.89;42.05
13456;BME280;6800;50.940;6.940;2023-07-31T03:16:56;100362.91;;;29.16;41.54
13456;BME280;6800;50.940;6.940;2023-07-31T03:20:58;100356.63;;;29.28;41.25
13456;BME280;6800;50.940;6.940;2023-07-31T03:24:59;100356.47;;;29.10;41.63
13456;BME280;6800;50.940;6.940;2023-07-31T03:29:00;100351.31;;;29.15;41.04
13456;BME280;6800;50.940;6.940;2023-07-31T03:33:02;100342.88;;;28.41;43.21
13456;BME280;6800;50.940;6.940;2023-07-31T03:37:04;100340.00;;;28.36;42.61
13456;BME280;6800;50.940;6.940;2023-07-31T03:41:06;100351.56;;;28.30;43.78
13456;BME280;6800;50.940;6.940;2023-07-31T03:45:08;100347.63;;;28.39;43.18
13456;BME280;6800;50.940;6.940;2023-07-31T03:49:09;100336.31;;;28.24;43.45
13456;BME280;6800;50.940;6.940;2023-07-31T03:53:11;100335.03;;;28.33;43.50
13456;BME280;6800;50.940;6.940;2023-07-31T03:57:13;100332.50;;;28.51;43.21
13456;BME280;6800;50.940;6.940;2023-07-31T04:01:14;100335.38;;;28.63;43.31
13456;BME280;6800;50.940;6.940;2023-07-31T04:05:15;100328.78;;;28.52;43.73
13456;BME280;6800;50.940;6.940;2023-07-31T04:09:17;100330.84;;;28.50;44.08
13456;BME280;6800;50.940;6.940;2023-07-31T04:13:19;100322.63;;;28.39;44.27
13456;BME280;6800;50.940;6.940;2023-07-31T04:17:20;100319.69;;;28.53;43.91
13456;BME280;6800;50.940;6.940;2023-07-31T04:21:22;100324.81;;;28.68;43.00
13456;BME280;6800;50.940;6.940;2023-07-31T04:25:23;100325.88;;;28.67;43.87
13456;BME280;6800;50.940;6.940;2023-07-31T04:29:25;100328.34;;;28.69;44.20
13456;BME280;6800;50.940;6.940;2023-07-31T04:33:26;100316.41;;;28.58;43.76
13456;BME280;6800;50.940;6.940;2023-07-31T04:37:28;100320.03;;;28.77;43.03
13456;BME280;6800;50.940;6.940;2023-07-31T04:41:29;100322.69;;;28.83;42.93
13456;BME280;6800;50.940;6.940;2023-07-31T04:45:30;100308.44;;;28.76;42.87
13456;BME280;6800;50.940;6.940;2023-07-31T04:49:32;100314.69;;;28.70;42.91
13456;BME280;6800;50.940;6.940;2023-07-31T04:53:36;100302.19;;;28.89;41.89
13456;BME280;6800;50.940;6.940;2023-07-31T04:57:38;100308.31;;;29.02;42.03
13456;BME280;6800;50.940;6.940;2023-07-31T05:01:39;100300.69;;;28.99;41.29
13456;BME280;6800;50.940;6.940;2023-07-31T05:05:41;100297.06;;;29.18;40.99
13456;BME280;6800;50.940;6.940;2023-07-31T05:09:42;100280.78;;;29.07;41.17
13456;BME280;6800;50.940;6.940;2023-07-31T05:13:43;100282.31;;;28.96;41.22
13456;BME280;6800;50.940;6.940;2023-07-31T05:17:45;100280.25;;;29.29;40.80
13456;BME280;6800;50.940;6.940;2023-07-31T05:21:46;100272.31;;;29.41;40.57
13456;BME280;6800;50.940;6.940;2023-07-31T05:25:48;100270.63;;;29.15;40.84
13456;BME280;6800;50.940;6.940;2023-07-31T05:29:49;100276.16;;;29.52;40.01
13456;BME280;6800;50.940;6.940;2023-07-31T05:33:51;100264.44;;;29.64;39.96
13456;BME280;6800;50.940;6.940;2023-07-31T05:37:52;100257.75;;;29.49;39.90
13456;BME280;6800;50.940;6.940;2023-07-31T05:41:54;100244.44;;;29.29;40.03
13456;BME280;6800;50.940;6.940;2023-07-31T05:45:55;100237.31;;;28.79;40.60
13456;BME280;6800;50.940;6.940;2023-07-31T05:49:57;100222.44;;;29.39;39.86
13456;BME280;6800;50.940;6.940;2023-07-31T05:53:58;100220.69;;;29.26;40.25
13456;BME280;6800;50.940;6.940;2023-07-31T05:57:59;100219.16;;;29.37;39.91
13456;BME280;6800;50.940;6.940;2023-07-31T06:02:01;100225.31;;;28.81;40.71
13456;BME280;6800;50.940;6.940;2023-07-31T06:06:03;100228.72;;;29.33;40.75
13456;BME280;6800;50.940;6.940;2023-07-31T06:10:05;100229.69;;;29.38;40.85
13456;BME280;6800;50.940;6.940;2023-07-31T06:14:07;100226.66;;;29.28;41.26
13456;BME280;6800;50.940;6.940;2023-07-31T06:18:08;100233.31;;;29.25;42.31
13456;BME280;6800;50.940;6.940;2023-07-31T06:22:09;100245.69;;;28.95;42.35
13456;BME280;6800;50.940;6.940;2023-07-31T06:26:11;100238.06;;;28.92;43.39
13456;BME280;6800;50.940;6.940;2023-07-31T06:30:12;100232.69;;;28.92;43.69
13456;BME280;6800;50.940;6.940;2023-07-31T06:34:13;100226.75;;;28.46;44.33
13456;BME280;6800;50.940;6.940;2023-07-31T06:38:15;100222.22;;;28.84;43.36
13456;BME280;6800;50.940;6.940;2023-07-31T06:42:16;100225.19;;;29.01;43.76
13456;BME280;6800;50.940;6.940;2023-07-31T06:46:18;100221.22;;;28.72;44.08
13456;BME280;6800;50.940;6.940;2023-07-31T06:50:19;100218.06;;;29.19;43.89
13456;BME280;6800;50.940;6.940;2023-07-31T06:54:20;100208.00;;;29.02;43.28
13456;BME280;6800;50.940;6.940;2023-07-31T06:58:24;100205.94;;;29.35;43.36
13456;BME280;6800;50.940;6.940;2023-07-31T07:02:26;100209.00;;;29.39;42.06
13456;BME280;6800;50.940;6.940;2023-07-31T07:06:27;100213.00;;;29.29;42.90
13456;BME280;6800;50.940;6.940;2023-07-31T07:10:28;100208.28;;;29.50;41.65
13456;BME280;6800;50.940;6.940;2023-07-31T07:14:30;100206.25;;;30.06;41.63
13456;BME280;6800;50.940;6.940;2023-07-31T07:18:31;100198.94;;;29.27;42.40
13456;BME280;6800;50.940;6.940;2023-07-31T07:22:33;100202.97;;;29.86;41.72
13456;BME280;6800;50.940;6.940;2023-07-31T07:26:34;100199.44;;;29.61;42.38
13456;BME280;6800;50.940;6.940;2023-07-31T07:30:36;100208.34;;;29.43;43.00
13456;BME280;6800;50.940;6.940;2023-07-31T07:34:37;100220.25;;;29.54;42.35
13456;BME280;6800;50.940;6.940;2023-07-31T07:38:39;100209.56;;;29.65;43.35
13456;BME280;6800;50.940;6.940;2023-07-31T07:42:40;100214.56;;;29.62;43.22
13456;BME280;6800;50.940;6.940;2023-07-31T07:46:42;100209.91;;;29.51;44.05
13456;BME280;6800;50.940;6.940;2023-07-31T07:50:43;100206.38;;;29.50;43.96
13456;BME280;6800;50.940;6.940;2023-07-31T07:54:45;100207.50;;;29.43;44.74
13456;BME280;6800;50.940;6.940;2023-07-31T07:58:49;100220.19;;;29.60;44.26
13456;BME280;6800;50.940;6.940;2023-07-31T08:02:51;100223.38;;;29.26;44.62
13456;BME280;6800;50.940;6.940;2023-07-31T08:06:53;100209.38;;;29.17;44.82
13456;BME280;6800;50.940;6.940;2023-07-31T08:10:54;100212.00;;;29.49;44.56
13456;BME280;6800;50.940;6.940;2023-07-31T08:14:55;100212.66;;;29.69;43.57
13456;BME280;6800;50.940;6.940;2023-07-31T08:18:57;100200.88;;;29.45;43.03
13456;BME280;6800;50.940;6.940;2023-07-31T08:22:58;100185.78;;;29.62;42.93
13456;BME280;6800;50.940;6.940;2023-07-31T08:27:00;100186.41;;;29.40;42.56
13456;BME280;6800;50.940;6.940;2023-07-31T08:31:01;100176.88;;;29.44;42.87
13456;BME280;6800;50.940;6.940;2023-07-31T08:35:03;100163.50;;;29.06;44.10
13456;BME280;6800;50.940;6.940;2023-07-31T08:39:04;100169.47;;;29.08;43.47
13456;BME280;6800;50.940;6.940;2023-07-31T08:43:07;100162.06;;;29.03;43.38
13456;BME280;6800;50.940;6.940;2023-07-31T08:47:08;100164.63;;;29.23;43.94
13456;BME280;6800;50.940;6.940;2023-07-31T08:51:10;100159.25;;;28.98;43.01
13456;BME280;6800;50.940;6.940;2023-07-31T08:55:12;100160.63;;;29.50;42.55
13456;BME280;6800;50.940;6.940;2023-07-31T08:59:14;100170.69;;;29.61;42.84
13456;BME280;6800;50.940;6.940;2023-07-31T09:03:18;100168.22;;;29.17;42.38
13456;BME280;6800;50.940;6.940;2023-07-31T09:07:21;100172.22;;;29.75;41.94
13456;BME280;6800;50.940;6.940;2023-07-31T09:11:24;100183.22;;;29.92;42.78
13456;BME280;6800;50.940;6.940;2023-07-31T09:15:27;100184.06;;;29.68;43.43
13456;BME280;6800;50.940;6.940;2023-07-31T09:19:38;100185.31;;;29.65;43.28
13456;BME280;6800;50.940;6.940;2023-07-31T09:23:44;100174.78;;;29.46;44.05
13456;BME280;6800;50.940;6.940;2023-07-31T09:27:50;100171.66;;;29.67;43.69
13456;BME280;6800;50.940;6.940;2023-07-31T09:31:53;100157.00;;;29.99;43.11
13456;BME280;6800;50.940;6.940;2023-07-31T09:35:58;100153.41;;;30.23;42.67
13456;BME280;6800;50.940;6.940;2023-07-31T09:39:59;100149.06;;;30.22;42.10
13456;BME280;6800;50.940;6.940;2023-07-31T09:44:01;100144.78;;;30.03;41.42
13456;BME280;6800;50.940;6.940;2023-07-31T09:48:03;100148.00;;;29.75;42.56
13456;BME280;6800;50.940;6.940;2023-07-31T09:52:11;100136.03;;;30.37;42.12
13456;BME280;6800;50.940;6.940;2023-07-31T09:56:13;100124.22;;;30.50;40.59
13456;BME280;6800;50.940;6.940;2023-07-31T10:00:17;100125.13;;;30.14;41.35
13456;BME280;6800;50.940;6.940;2023-07-31T10:04:21;100124.34;;;30.43;40.87
13456;BME280;6800;50.940;6.940;2023-07-31T10:08:27;100112.88;;;31.01;39.48
13456;BME280;6800;50.940;6.940;2023-07-31T10:12:33;100114.66;;;31.53;39.54
13456;BME280;6800;50.940;6.940;2023-07-31T10:16:38;100107.50;;;31.47;39.04
13456;BME280;6800;50.940;6.940;2023-07-31T10:20:40;100109.59;;;31.56;38.33
13456;BME280;6800;50.940;6.940;2023-07-31T10:24:42;100109.84;;;31.20;39.18
13456;BME280;6800;50.940;6.940;2023-07-31T10:28:46;100112.03;;;31.35;39.21
13456;BME280;6800;50.940;6.940;2023-07-31T10:32:48;100110.91;;;31.42;38.62
13456;BME280;6800;50.940;6.940;2023-07-31T10:37:20;100112.53;;;31.55;37.63
13456;BME280;6800;50.940;6.940;2023-07-31T10:41:29;100109.00;;;31.66;37.93
13456;BME280;6800;50.940;6.940;2023-07-31T10:49:38;100105.16;;;31.90;37.01
13456;BME280;6800;50.940;6.940;2023-07-31T10:53:40;100105.09;;;32.13;36.96
13456;BME280;6800;50.940;6.940;2023-07-31T10:57:44;100100.72;;;31.84;37.05
13456;BME280;6800;50.940;6.940;2023-07-31T11:01:57;100115.88;;;31.85;36.95
13456;BME280;6800;50.940;6.940;2023-07-31T11:05:59;100120.41;;;31.56;39.24
13456;BME280;6800;50.940;6.940;2023-07-31T11:10:02;100120.06;;;31.53;39.82
13456;BME280;6800;50.940;6.940;2023-07-31T11:14:03;100110.66;;;31.44;40.06
13456;BME280;6800;50.940;6.940;2023-07-31T11:18:05;100110.09;;;31.42;39.69
13456;BME280;6800;50.940;6.940;2023-07-31T11:22:07;100106.28;;;30.85;40.12
13456;BME280;6800;50.940;6.940;2023-07-31T11:26:08;100099.28;;;31.42;39.87
13456;BME280;6800;50.940;6.940;2023-07-31T11:30:10;100101.81;;;32.11;38.39
13456;BME280;6800;50.940;6.940;2023-07-31T11:34:12;100096.41;;;32.68;37.39
13456;BME280;6800;50.940;6.940;2023-07-31T11:38:33;100085.06;;;32.87;37.06
13456;BME280;6800;50.940;6.940;2023-07-31T11:42:35;100090.84;;;32.74;35.79
13456;BME280;6800;50.940;6.940;2023-07-31T11:46:37;100072.69;;;32.75;36.16
13456;BME280;6800;50.940;6.940;2023-07-31T11:50:40;100074.56;;;33.24;34.73
13456;BME280;6800;50.940;6.940;2023-07-31T11:54:42;100084.34;;;32.30;35.70
13456;BME280;6800;50.940;6.940;2023-07-31T11:58:48;100075.50;;;32.35;35.36
13456;BME280;6800;50.940;6.940;2023-07-31T12:02:50;100061.97;;;32.47;36.19
13456;BME280;6800;50.940;6.940;2023-07-31T12:06:53;100072.38;;;32.26;36.42
13456;BME280;6800;50.940;6.940;2023-07-31T12:11:06;100072.81;;;32.35;37.05
13456;BME280;6800;50.940;6.940;2023-07-31T12:15:16;100078.72;;;31.92;37.66
13456;BME280;6800;50.940;6.940;2023-07-31T12:19:19;100068.88;;;31.98;37.82
13456;BME280;6800;50.940;6.940;2023-07-31T12:23:22;100060.66;;;31.93;37.49
13456;BME280;6800;50.940;6.940;2023-07-31T12:27:32;100073.41;;;31.69;37.91
13456;BME280;6800;50.940;6.940;2023-07-31T12:31:34;100059.38;;;31.95;37.52
13456;BME280;6800;50.940;6.940;2023-07-31T12:35:41;100061.25;;;31.95;37.41
13456;BME280;6800;50.940;6.940;2023-07-31T12:39:43;100056.91;;;31.54;38.03
13456;BME280;6800;50.940;6.940;2023-07-31T12:43:45;100062.00;;;31.79;37.20
13456;BME280;6800;50.940;6.940;2023-07-31T12:47:46;100058.22;;;31.17;38.05
13456;BME280;6800;50.940;6.940;2023-07-31T12:51:48;100070.72;;;31.69;38.00
13456;BME280;6800;50.940;6.940;2023-07-31T12:55:49;100059.81;;;31.92;37.12
13456;BME280;6800;50.940;6.940;2023-07-31T12:59:51;100055.03;;;32.22;37.61
13456;BME280;6800;50.940;6.940;2023-07-31T13:03:52;100044.53;;;31.70;38.05
13456;BME280;6800;50.940;6.940;2023-07-31T13:07:54;100025.19;;;32.17;37.17
13456;BME280;6800;50.940;6.940;2023-07-31T13:11:56;100023.19;;;31.96;37.37
13456;BME280;6800;50.940;6.940;2023-07-31T13:15:57;100001.63;;;32.29;36.46
13456;BME280;6800;50.940;6.940;2023-07-31T13:19:59;100006.84;;;32.19;36.83
13456;BME280;6800;50.940;6.940;2023-07-31T13:24:02;99998.16;;;32.17;36.84
13456;BME280;6800;50.940;6.940;2023-07-31T13:28:05;99992.84;;;32.06;36.70
13456;BME280;6800;50.940;6.940;2023-07-31T13:32:06;99982.78;;;31.90;36.52
13456;BME280;6800;50.940;6.940;2023-07-31T13:36:07;99970.00;;;32.80;35.03
13456;BME280;6800;50.940;6.940;2023-07-31T13:40:09;99971.16;;;32.67;34.94
13456;BME280;6800;50.940;6.940;2023-07-31T13:44:11;99963.56;;;33.02;34.52
13456;BME280;6800;50.940;6.940;2023-07-31T13:48:12;99968.91;;;33.19;34.34
13456;BME280;6800;50.940;6.940;2023-07-31T13:52:14;99981.53;;;33.52;34.17
13456;BME280;6800;50.940;6.940;2023-07-31T13:56:16;99963.72;;;33.83;32.94
13456;BME280;6800;50.940;6.940;2023-07-31T14:00:17;99947.19;;;32.54;34.64
13456;BME280;6800;50.940;6.940;2023-07-31T14:04:18;99954.72;;;33.50;34.17
13456;BME280;6800;50.940;6.940;2023-07-31T14:08:20;99964.69;;;32.18;34.99
13456;BME280;6800;50.940;6.940;2023-07-31T14:12:21;99974.97;;;33.26;33.23
13456;BME280;6800;50.940;6.940;2023-07-31T14:16:42;99965.63;;;33.17;33.67
13456;BME280;6800;50.940;6.940;2023-07-31T14:20:44;99985.53;;;33.49;33.30
13456;BME280;6800;50.940;6.940;2023-07-31T14:24:45;99975.25;;;32.70;34.05
13456;BME280;6800;50.940;6.940;2023-07-31T14:28:47;99967.97;;;31.36;36.51
13456;BME280;6800;50.940;6.940;2023-07-31T14:32:48;99970.97;;;32.07;35.23
13456;BME280;6800;50.940;6.940;2023-07-31T14:36:50;99975.91;;;32.10;35.64
13456;BME280;6800;50.940;6.940;2023-07-31T14:40:51;99968.53;;;31.78;35.86
13456;BME280;6800;50.940;6.940;2023-07-31T14:44:52;99954.69;;;32.02;35.61
13456;BME280;6800;50.940;6.940;2023-07-31T14:48:54;99963.28;;;30.92;37.34
13456;BME280;6800;50.940;6.940;2023-07-31T14:52:55;99947.44;;;31.75;36.10
13456;BME280;6800;50.940;6.940;2023-07-31T14:56:57;99951.91;;;32.14;35.34
13456;BME280;6800;50.940;6.940;2023-07-31T15:00:58;99942.59;;;32.21;34.72
13456;BME280;6800;50.940;6.940;2023-07-31T15:04:59;99941.22;;;31.34;36.36
13456;BME280;6800;50.940;6.940;2023-07-31T15:09:01;99939.47;;;31.68;35.62
13456;BME280;6800;50.940;6.940;2023-07-31T15:13:02;99940.19;;;31.64;36.09
13456;BME280;6800;50.940;6.940;2023-07-31T15:17:04;99940.53;;;31.95;35.35
13456;BME280;6800;50.940;6.940;2023-07-31T15:21:05;99940.22;;;32.08;35.26
13456;BME280;6800;50.940;6.940;2023-07-31T15:25:08;99942.06;;;32.58;34.51
13456;BME280;6800;50.940;6.940;2023-07-31T15:29:09;99941.38;;;31.56;35.99
13456;BME280;6800;50.940;6.940;2023-07-31T15:33:12;99933.47;;;31.94;34.97
13456;BME280;6800;50.940;6.940;2023-07-31T15:37:14;99917.31;;;31.83;35.40
13456;BME280;6800;50.940;6.940;2023-07-31T15:41:15;99918.53;;;31.75;35.50
13456;BME280;6800;50.940;6.940;2023-07-31T15:45:17;99908.97;;;31.00;36.43
13456;BME280;6800;50.940;6.940;2023-07-31T15:49:19;99909.16;;;31.49;35.37
13456;BME280;6800;50.940;6.940;2023-07-31T15:53:20;99919.34;;;31.76;35.88
13456;BME280;6800;50.940;6.940;2023-07-31T15:57:21;99911.31;;;31.64;37.64
13456;BME280;6800;50.940;6.940;2023-07-31T16:01:23;99908.44;;;31.14;38.07
13456;BME280;6800;50.940;6.940;2023-07-31T16:05:24;99904.75;;;30.92;38.66
13456;BME280;6800;50.940;6.940;2023-07-31T16:09:26;99892.84;;;31.16;38.57
13456;BME280;6800;50.940;6.940;2023-07-31T16:13:27;99894.50;;;31.06;39.33
13456;BME280;6800;50.940;6.940;2023-07-31T16:17:28;99889.97;;;30.71;39.76
13456;BME280;6800;50.940;6.940;2023-07-31T16:21:30;99881.69;;;30.50;40.78
13456;BME280;6800;50.940;6.940;2023-07-31T16:25:31;99873.81;;;30.25;40.83
13456;BME280;6800;50.940;6.940;2023-07-31T16:29:33;99867.28;;;30.21;41.33
13456;BME280;6800;50.940;6.940;2023-07-31T16:33:34;99866.47;;;30.09;42.06
13456;BME280;6800;50.940;6.940;2023-07-31T16:37:36;99868.66;;;30.12;42.50
13456;BME280;6800;50.940;6.940;2023-07-31T16:41:38;99869.03;;;29.63;43.74
13456;BME280;6800;50.940;6.940;2023-07-31T16:45:39;99867.59;;;29.49;45.25
13456;BME280;6800;50.940;6.940;2023-07-31T16:49:41;99860.78;;;29.46;45.90
13456;BME280;6800;50.940;6.940;2023-07-31T16:53:42;99847.50;;;29.03;47.60
13456;BME280;6800;50.940;6.940;2023-07-31T16:57:45;99830.00;;;29.12;47.92
13456;BME280;6800;50.940;6.940;2023-07-31T17:01:49;99825.44;;;29.31;46.75
13456;BME280;6800;50.940;6.940;2023-07-31T17:05:50;99818.59;;;29.17;47.16
13456;BME280;6800;50.940;6.940;2023-07-31T17:09:52;99808.47;;;29.01;47.83
13456;BME280;6800;50.940;6.940;2023-07-31T17:13:55;99795.72;;;28.96;47.67
13456;BME280;6800;50.940;6.940;2023-07-31T17:17:56;99787.06;;;28.94;47.71
13456;BME280;6800;50.940;6.940;2023-07-31T17:21:58;99792.09;;;29.02;47.24
13456;BME280;6800;50.940;6.940;2023-07-31T17:25:59;99780.56;;;29.13;47.86
13456;BME280;6800;50.940;6.940;2023-07-31T17:30:00;99774.03;;;28.80;48.59
13456;BME280;6800;50.940;6.940;2023-07-31T17:34:02;99767.22;;;28.77;48.80
13456;BME280;6800;50.940;6.940;2023-07-31T17:38:05;99769.31;;;28.75;48.27
13456;BME280;6800;50.940;6.940;2023-07-31T17:42:06;99772.34;;;28.67;49.34
13456;BME280;6800;50.940;6.940;2023-07-31T17:46:07;99759.78;;;28.61;49.54
13456;BME280;6800;50.940;6.940;2023-07-31T17:50:09;99764.09;;;28.44;49.65
13456;BME280;6800;50.940;6.940;2023-07-31T17:54:11;99764.03;;;28.14;50.98
13456;BME280;6800;50.940;6.940;2023-07-31T17:58:12;99757.25;;;28.30;49.79
13456;BME280;6800;50.940;6.940;2023-07-31T18:02:13;99749.09;;;28.00;50.83
13456;BME280;6800;50.940;6.940;2023-07-31T18:06:15;99745.59;;;28.54;50.12
13456;BME280;6800;50.940;6.940;2023-07-31T18:10:16;99749.94;;;28.19;50.90
13456;BME280;6800;50.940;6.940;2023-07-31T18:14:18;99737.25;;;28.26;50.43
13456;BME280;6800;50.940;6.940;2023-07-31T18:18:22;99738.84;;;28.15;50.54
13456;BME280;6800;50.940;6.940;2023-07-31T18:22:24;99738.00;;;28.15;50.51
13456;BME280;6800;50.940;6.940;2023-07-31T18:26:25;99739.22;;;27.94;51.84
13456;BME280;6800;50.940;6.940;2023-07-31T18:30:26;99733.22;;;28.35;50.11
13456;BME280;6800;50.940;6.940;2023-07-31T18:34:30;99722.69;;;28.33;50.37
13456;BME280;6800;50.940;6.940;2023-07-31T18:38:31;99720.03;;;28.15;50.98
13456;BME280;6800;50.940;6.940;2023-07-31T18:42:33;99721.16;;;28.26;50.58
13456;BME280;6800;50.940;6.940;2023-07-31T18:46:34;99721.59;;;28.23;50.59
13456;BME280;6800;50.940;6.940;2023-07-31T18:50:40;99710.47;;;28.19;50.26
13456;BME280;6800;50.940;6.940;2023-07-31T18:54:43;99702.09;;;28.64;49.93
13456;BME280;6800;50.940;6.940;2023-07-31T18:58:44;99700.97;;;28.53;49.94
13456;BME280;6800;50.940;6.940;2023-07-31T19:02:45;99685.06;;;28.04;51.26
13456;BME280;6800;50.940;6.940;2023-07-31T19:06:47;99684.84;;;28.05;50.92
13456;BME280;6800;50.940;6.940;2023-07-31T19:10:49;99676.69;;;27.75;51.30
13456;BME280;6800;50.940;6.940;2023-07-31T19:14:50;99676.56;;;28.07;51.04
13456;BME280;6800;50.940;6.940;2023-07-31T19:18:52;99673.63;;;27.90;51.15
13456;BME280;6800;50.940;6.940;2023-07-31T19:22:53;99664.91;;;27.76;50.90
13456;BME280;6800;50.940;6.940;2023-07-31T19:26:55;99650.16;;;27.86;51.16
13456;BME280;6800;50.940;6.940;2023-07-31T19:30:57;99649.31;;;27.85;50.85
13456;BME280;6800;50.940;6.940;2023-07-31T19:34:58;99623.69;;;27.28;52.61
13456;BME280;6800;50.940;6.940;2023-07-31T19:39:00;99602.47;;;27.69;51.59
13456;BME280;6800;50.940;6.940;2023-07-31T19:43:01;99587.84;;;27.83;51.73
13456;BME280;6800;50.940;6.940;2023-07-31T19:47:03;99560.78;;;27.31;52.85
13456;BME280;6800;50.940;6.940;2023-07-31T19:51:06;99558.53;;;27.28;53.32
13456;BME280;6800;50.940;6.940;2023-07-31T19:55:08;99602.91;;;27.66;52.18
13456;BME280;6800;50.940;6.940;2023-07-31T19:59:10;99594.69;;;27.61;51.92
13456;BME280;6800;50.940;6.940;2023-07-31T20:03:11;99597.06;;;27.33;52.58
13456;BME280;6800;50.940;6.940;2023-07-31T20:07:13;99589.94;;;28.00;50.53
13456;BME280;6800;50.940;6.940;2023-07-31T20:11:14;99600.59;;;27.52;51.52
13456;BME280;6800;50.940;6.940;2023-07-31T20:15:22;99606.75;;;28.25;49.64
13456;BME280;6800;50.940;6.940;2023-07-31T20:19:24;99585.00;;;27.78;50.97
13456;BME280;6800;50.940;6.940;2023-07-31T20:23:25;99573.69;;;27.76;51.32
13456;BME280;6800;50.940;6.940;2023-07-31T20:27:43;99597.91;;;28.06;50.47
13456;BME280;6800;50.940;6.940;2023-07-31T20:31:44;99606.38;;;28.21;50.04
13456;BME280;6800;50.940;6.940;2023-07-31T20:35:46;99586.66;;;27.98;50.62
13456;BME280;6800;50.940;6.940;2023-07-31T20:39:47;99577.06;;;28.20;49.71
13456;BME280;6800;50.940;6.940;2023-07-31T20:43:49;99571.66;;;27.90;50.63
13456;BME280;6800;50.940;6.940;2023-07-31T20:47:50;99575.97;;;28.39;49.12
13456;BME280;6800;50.940;6.940;2023-07-31T20:51:51;99568.16;;;28.49;48.41
13456;BME280;6800;50.940;6.940;2023-07-31T20:55:53;99560.69;;;28.51;48.44
13456;BME280;6800;50.940;6.940;2023-07-31T20:59:54;99555.41;;;28.33;49.04
13456;BME280;6800;50.940;6.940;2023-07-31T21:03:56;99543.31;;;28.53;48.90
13456;BME280;6800;50.940;6.940;2023-07-31T21:07:58;99523.50;;;28.66;48.51
13456;BME280;6800;50.940;6.940;2023-07-31T21:12:00;99528.16;;;28.59;48.38
13456;BME280;6800;50.940;6.940;2023-07-31T21:16:01;99517.00;;;28.32;48.89
13456;BME280;6800;50.940;6.940;2023-07-31T21:20:04;99517.09;;;28.67;48.50
13456;BME280;6800;50.940;6.940;2023-07-31T21:24:05;99506.28;;;28.55;48.56
13456;BME280;6800;50.940;6.940;2023-07-31T21:28:06;99497.78;;;27.88;50.13
13456;BME280;6800;50.940;6.940;2023-07-31T21:32:08;99490.97;;;28.44;48.80
13456;BME280;6800;50.940;6.940;2023-07-31T21:36:11;99459.44;;;28.40;49.18
13456;BME280;6800;50.940;6.940;2023-07-31T21:40:12;99447.72;;;28.23;49.57